sensor_id;sensor_type;location;lat;lon;timestamp;P1;durP1;ratioP1;P2;durP2;ratioP2
13469;SDS011;6807;48.682;9.032;2023-02-15T00:01:29;31.67;;;16.83;;
13469;SDS011;6807;48.682;9.032;2023-02-15T00:03:57;37.15;;;16.75;;
13469;SDS011;6807;48.682;9.032;2023-02-15T00:06:24;31.33;;;16.98;;
13469;SDS011;6807;48.682;9.032;2023-02-15T00:08:51;34.83;;;17.45;;
13469;SDS011;6807;48.682;9.032;2023-02-15T00:11:20;30.95;;;16.65;;
13469;SDS011;6807;48.682;9.032;2023-02-15T00:14:02;35.05;;;17.67;;
13469;SDS011;6807;48.682;9.032;2023-02-15T00:16:30;31.08;;;17.15;;
13469;SDS011;6807;48.682;9.032;2023-02-15T00:18:57;38.17;;;17.73;;
13469;SDS011;6807;48.682;9.032;2023-02-15T00:21:26;33.10;;;17.15;;
13469;SDS011;6807;48.682;9.032;2023-02-15T00:23:54;40.80;;;18.27;;
13469;SDS011;6807;48.682;9.032;2023-02-15T00:26:21;36.15;;;17.83;;
13469;SDS011;6807;48.682;9.032;2023-02-15T00:28:49;33.88;;;18.08;;
13469;SDS011;6807;48.682;9.032;2023-02-15T00:31:18;35.28;;;18.05;;
13469;SDS011;6807;48.682;9.032;2023-02-15T00:33:45;36.05;;;17.27;;
13469;SDS011;6807;48.682;9.032;2023-02-15T00:36:12;35.90;;;17.63;;
13469;SDS011;6807;48.682;9.032;2023-02-15T00:38:39;33.50;;;18.10;;
13469;SDS011;6807;48.682;9.032;2023-02-15T00:41:07;31.80;;;17.25;;
13469;SDS011;6807;48.682;9.032;2023-02-15T00:43:35;37.60;;;17.17;;
13469;SDS011;6807;48.682;9.032;2023-02-15T00:46:03;33.95;;;17.98;;
13469;SDS011;6807;48.682;9.032;2023-02-15T00:48:32;37.90;;;18.02;;
13469;SDS011;6807;48.682;9.032;2023-02-15T00:51:00;31.15;;;18.65;;
13469;SDS011;6807;48.682;9.032;2023-02-15T00:53:27;31.90;;;18.80;;
13469;SDS011;6807;48.682;9.032;2023-02-15T00:55:55;36.08;;;18.45;;
13469;SDS011;6807;48.682;9.032;2023-02-15T00:58:22;31.90;;;17.50;;
13469;SDS011;6807;48.682;9.032;2023-02-15T01:00:50;37.63;;;18.63;;
13469;SDS011;6807;48.682;9.032;2023-02-15T01:03:17;34.13;;;17.25;;
13469;SDS011;6807;48.682;9.032;2023-02-15T01:05:48;34.42;;;17.80;;
13469;SDS011;6807;48.682;9.032;2023-02-15T01:08:15;37.25;;;19.33;;
13469;SDS011;6807;48.682;9.032;2023-02-15T01:10:42;33.83;;;17.80;;
13469;SDS011;6807;48.682;9.032;2023-02-15T01:13:12;33.20;;;18.17;;
13469;SDS011;6807;48.682;9.032;2023-02-15T01:15:39;35.75;;;18.63;;
13469;SDS011;6807;48.682;9.032;2023-02-15T01:18:06;36.22;;;18.10;;
13469;SDS011;6807;48.682;9.032;2023-02-15T01:20:34;35.05;;;18.15;;
13469;SDS011;6807;48.682;9.032;2023-02-15T01:23:05;35.42;;;18.40;;
13469;SDS011;6807;48.682;9.032;2023-02-15T01:25:33;33.85;;;17.58;;
13469;SDS011;6807;48.682;9.032;2023-02-15T01:28:02;35.95;;;18.77;;
13469;SDS011;6807;48.682;9.032;2023-02-15T01:30:29;29.52;;;18.50;;
13469;SDS011;6807;48.682;9.032;2023-02-15T03:02:18;26.05;;;15.75;;
13469;SDS011;6807;48.682;9.032;2023-02-15T03:04:58;30.80;;;15.10;;
13469;SDS011;6807;48.682;9.032;2023-02-15T03:07:33;30.05;;;15.90;;
13469;SDS011;6807;48.682;9.032;2023-02-15T03:10:08;33.55;;;17.35;;
13469;SDS011;6807;48.682;9.032;2023-02-15T03:12:37;31.27;;;15.80;;
13469;SDS011;6807;48.682;9.032;2023-02-15T03:15:09;26.58;;;15.32;;
13469;SDS011;6807;48.682;9.032;2023-02-15T03:17:42;33.30;;;15.68;;
13469;SDS011;6807;48.682;9.032;2023-02-15T03:20:17;32.25;;;15.40;;
13469;SDS011;6807;48.682;9.032;2023-02-15T03:22:51;25.58;;;15.40;;
13469;SDS011;6807;48.682;9.032;2023-02-15T03:25:22;30.08;;;16.38;;
13469;SDS011;6807;48.682;9.032;2023-02-15T03:27:53;34.30;;;16.70;;
13469;SDS011;6807;48.682;9.032;2023-02-15T03:30:25;28.90;;;17.17;;
13469;SDS011;6807;48.682;9.032;2023-02-15T03:32:55;27.30;;;15.40;;
13469;SDS011;6807;48.682;9.032;2023-02-15T03:35:33;29.15;;;15.38;;
13469;SDS011;6807;48.682;9.032;2023-02-15T03:38:06;30.48;;;16.48;;
13469;SDS011;6807;48.682;9.032;2023-02-15T03:40:36;28.52;;;16.00;;
13469;SDS011;6807;48.682;9.032;2023-02-15T03:43:22;37.55;;;16.63;;
13469;SDS011;6807;48.682;9.032;2023-02-15T03:45:58;35.15;;;16.45;;
13469;SDS011;6807;48.682;9.032;2023-02-15T03:48:35;27.05;;;16.80;;
13469;SDS011;6807;48.682;9.032;2023-02-15T03:51:07;31.35;;;17.20;;
13469;SDS011;6807;48.682;9.032;2023-02-15T03:53:56;33.53;;;16.45;;
13469;SDS011;6807;48.682;9.032;2023-02-15T03:56:25;30.70;;;16.75;;
13469;SDS011;6807;48.682;9.032;2023-02-15T03:58:53;26.30;;;15.73;;
13469;SDS011;6807;48.682;9.032;2023-02-15T04:01:39;35.33;;;16.73;;
13469;SDS011;6807;48.682;9.032;2023-02-15T04:04:31;29.17;;;17.85;;
13469;SDS011;6807;48.682;9.032;2023-02-15T04:07:07;27.98;;;16.10;;
13469;SDS011;6807;48.682;9.032;2023-02-15T04:09:38;30.60;;;16.90;;
13469;SDS011;6807;48.682;9.032;2023-02-15T04:12:24;27.10;;;15.80;;
13469;SDS011;6807;48.682;9.032;2023-02-15T04:14:51;28.50;;;15.88;;
13469;SDS011;6807;48.682;9.032;2023-02-15T04:17:36;32.60;;;16.63;;
13469;SDS011;6807;48.682;9.032;2023-02-15T04:20:07;33.58;;;16.60;;
13469;SDS011;6807;48.682;9.032;2023-02-15T04:22:54;26.85;;;15.35;;
13469;SDS011;6807;48.682;9.032;2023-02-15T04:25:39;31.92;;;16.88;;
13469;SDS011;6807;48.682;9.032;2023-02-15T04:28:06;26.88;;;15.82;;
13469;SDS011;6807;48.682;9.032;2023-02-15T04:30:34;28.00;;;15.32;;
13469;SDS011;6807;48.682;9.032;2023-02-15T04:33:01;35.00;;;17.48;;
13469;SDS011;6807;48.682;9.032;2023-02-15T04:35:34;27.55;;;15.68;;
13469;SDS011;6807;48.682;9.032;2023-02-15T04:38:05;31.50;;;16.08;;
13469;SDS011;6807;48.682;9.032;2023-02-15T04:40:33;27.42;;;15.90;;
13469;SDS011;6807;48.682;9.032;2023-02-15T04:43:00;32.15;;;16.27;;
13469;SDS011;6807;48.682;9.032;2023-02-15T04:45:35;36.00;;;17.70;;
13469;SDS011;6807;48.682;9.032;2023-02-15T04:48:03;30.90;;;17.02;;
13469;SDS011;6807;48.682;9.032;2023-02-15T04:50:30;26.45;;;15.98;;
13469;SDS011;6807;48.682;9.032;2023-02-15T04:53:01;32.35;;;16.60;;
13469;SDS011;6807;48.682;9.032;2023-02-15T04:55:31;30.75;;;16.45;;
13469;SDS011;6807;48.682;9.032;2023-02-15T04:58:00;33.50;;;16.70;;
13469;SDS011;6807;48.682;9.032;2023-02-15T05:00:30;28.67;;;16.42;;
13469;SDS011;6807;48.682;9.032;2023-02-15T05:03:01;30.58;;;17.10;;
13469;SDS011;6807;48.682;9.032;2023-02-15T05:05:42;30.10;;;16.35;;
13469;SDS011;6807;48.682;9.032;2023-02-15T05:08:12;31.10;;;16.95;;
13469;SDS011;6807;48.682;9.032;2023-02-15T05:10:41;28.08;;;16.15;;
13469;SDS011;6807;48.682;9.032;2023-02-15T05:13:13;33.90;;;17.40;;
13469;SDS011;6807;48.682;9.032;2023-02-15T05:15:41;31.98;;;16.02;;
13469;SDS011;6807;48.682;9.032;2023-02-15T05:18:12;32.75;;;16.65;;
13469;SDS011;6807;48.682;9.032;2023-02-15T05:20:39;32.42;;;16.42;;
13469;SDS011;6807;48.682;9.032;2023-02-15T05:23:06;28.45;;;15.63;;
13469;SDS011;6807;48.682;9.032;2023-02-15T05:25:33;32.15;;;16.73;;
13469;SDS011;6807;48.682;9.032;2023-02-15T05:28:19;27.27;;;14.77;;
13469;SDS011;6807;48.682;9.032;2023-02-15T05:30:47;29.98;;;16.08;;
13469;SDS011;6807;48.682;9.032;2023-02-15T05:33:14;29.02;;;14.35;;
13469;SDS011;6807;48.682;9.032;2023-02-15T05:35:43;28.40;;;16.08;;
13469;SDS011;6807;48.682;9.032;2023-02-15T05:38:10;34.03;;;15.55;;
13469;SDS011;6807;48.682;9.032;2023-02-15T05:40:37;26.85;;;14.68;;
13469;SDS011;6807;48.682;9.032;2023-02-15T05:43:11;28.80;;;14.02;;
13469;SDS011;6807;48.682;9.032;2023-02-15T05:45:39;34.30;;;14.18;;
13469;SDS011;6807;48.682;9.032;2023-02-15T05:48:13;30.45;;;15.85;;
13469;SDS011;6807;48.682;9.032;2023-02-15T05:50:40;24.95;;;15.35;;
13469;SDS011;6807;48.682;9.032;2023-02-15T05:53:07;26.15;;;15.80;;
13469;SDS011;6807;48.682;9.032;2023-02-15T05:55:39;30.55;;;16.02;;
13469;SDS011;6807;48.682;9.032;2023-02-15T05:58:06;35.30;;;16.65;;
13469;SDS011;6807;48.682;9.032;2023-02-15T06:00:37;30.95;;;15.75;;
13469;SDS011;6807;48.682;9.032;2023-02-15T06:03:07;24.95;;;14.85;;
13469;SDS011;6807;48.682;9.032;2023-02-15T06:05:34;32.28;;;14.48;;
13469;SDS011;6807;48.682;9.032;2023-02-15T06:08:01;25.42;;;14.13;;
13469;SDS011;6807;48.682;9.032;2023-02-15T06:10:29;30.73;;;15.38;;
13469;SDS011;6807;48.682;9.032;2023-02-15T06:12:56;28.05;;;15.00;;
13469;SDS011;6807;48.682;9.032;2023-02-15T06:15:23;26.40;;;14.85;;
13469;SDS011;6807;48.682;9.032;2023-02-15T06:17:50;30.60;;;14.07;;
13469;SDS011;6807;48.682;9.032;2023-02-15T06:20:21;27.33;;;14.25;;
13469;SDS011;6807;48.682;9.032;2023-02-15T06:22:56;26.58;;;13.52;;
13469;SDS011;6807;48.682;9.032;2023-02-15T06:25:23;27.85;;;14.35;;
13469;SDS011;6807;48.682;9.032;2023-02-15T06:31:09;30.27;;;15.15;;
13469;SDS011;6807;48.682;9.032;2023-02-15T06:38:53;26.75;;;14.38;;
13469;SDS011;6807;48.682;9.032;2023-02-15T06:41:43;29.58;;;13.85;;
13469;SDS011;6807;48.682;9.032;2023-02-15T06:44:10;26.42;;;13.90;;
13469;SDS011;6807;48.682;9.032;2023-02-15T06:46:37;25.73;;;14.00;;
13469;SDS011;6807;48.682;9.032;2023-02-15T06:49:05;30.20;;;14.07;;
13469;SDS011;6807;48.682;9.032;2023-02-15T06:51:32;22.45;;;12.55;;
13469;SDS011;6807;48.682;9.032;2023-02-15T06:54:01;25.30;;;13.75;;
13469;SDS011;6807;48.682;9.032;2023-02-15T06:56:32;32.65;;;14.40;;
13469;SDS011;6807;48.682;9.032;2023-02-15T06:59:03;28.05;;;14.02;;
13469;SDS011;6807;48.682;9.032;2023-02-15T07:01:30;28.80;;;13.48;;
13469;SDS011;6807;48.682;9.032;2023-02-15T07:04:02;21.92;;;12.40;;
13469;SDS011;6807;48.682;9.032;2023-02-15T07:06:32;29.73;;;12.63;;
13469;SDS011;6807;48.682;9.032;2023-02-15T07:09:03;24.35;;;13.80;;
13469;SDS011;6807;48.682;9.032;2023-02-15T07:11:47;28.38;;;14.43;;
13469;SDS011;6807;48.682;9.032;2023-02-15T07:14:32;41.67;;;19.47;;
13469;SDS011;6807;48.682;9.032;2023-02-15T07:17:02;34.50;;;15.35;;
13469;SDS011;6807;48.682;9.032;2023-02-15T07:19:35;25.20;;;12.35;;
13469;SDS011;6807;48.682;9.032;2023-02-15T07:22:03;24.13;;;13.13;;
13469;SDS011;6807;48.682;9.032;2023-02-15T07:24:33;23.20;;;12.48;;
13469;SDS011;6807;48.682;9.032;2023-02-15T07:27:00;19.95;;;11.65;;
13469;SDS011;6807;48.682;9.032;2023-02-15T07:29:27;21.08;;;11.82;;
13469;SDS011;6807;48.682;9.032;2023-02-15T07:31:54;22.85;;;12.00;;
13469;SDS011;6807;48.682;9.032;2023-02-15T07:34:25;27.35;;;12.65;;
13469;SDS011;6807;48.682;9.032;2023-02-15T07:39:30;29.70;;;15.60;;
13469;SDS011;6807;48.682;9.032;2023-02-15T07:42:04;29.20;;;14.63;;
13469;SDS011;6807;48.682;9.032;2023-02-15T07:44:32;22.50;;;12.95;;
13469;SDS011;6807;48.682;9.032;2023-02-15T07:46:59;17.80;;;10.95;;
13469;SDS011;6807;48.682;9.032;2023-02-15T07:52:25;21.65;;;11.13;;
13469;SDS011;6807;48.682;9.032;2023-02-15T07:54:54;20.40;;;10.52;;
13469;SDS011;6807;48.682;9.032;2023-02-15T07:57:27;19.95;;;10.30;;
13469;SDS011;6807;48.682;9.032;2023-02-15T08:00:12;18.60;;;10.05;;
13469;SDS011;6807;48.682;9.032;2023-02-15T08:02:41;18.85;;;10.50;;
13469;SDS011;6807;48.682;9.032;2023-02-15T08:05:13;21.08;;;11.07;;
13469;SDS011;6807;48.682;9.032;2023-02-15T08:07:43;24.40;;;12.40;;
13469;SDS011;6807;48.682;9.032;2023-02-15T08:10:11;22.08;;;13.23;;
13469;SDS011;6807;48.682;9.032;2023-02-15T08:12:58;34.28;;;15.45;;
13469;SDS011;6807;48.682;9.032;2023-02-15T08:15:25;34.72;;;15.93;;
13469;SDS011;6807;48.682;9.032;2023-02-15T08:17:52;32.13;;;15.32;;
13469;SDS011;6807;48.682;9.032;2023-02-15T08:20:19;32.00;;;16.10;;
13469;SDS011;6807;48.682;9.032;2023-02-15T08:22:46;39.28;;;18.98;;
13469;SDS011;6807;48.682;9.032;2023-02-15T08:25:15;31.05;;;17.20;;
13469;SDS011;6807;48.682;9.032;2023-02-15T08:27:42;33.17;;;18.08;;
13469;SDS011;6807;48.682;9.032;2023-02-15T08:30:09;36.53;;;19.83;;
13469;SDS011;6807;48.682;9.032;2023-02-15T08:32:39;34.35;;;20.90;;
13469;SDS011;6807;48.682;9.032;2023-02-15T08:35:06;29.48;;;18.13;;
13469;SDS011;6807;48.682;9.032;2023-02-15T08:37:33;22.67;;;15.43;;
13469;SDS011;6807;48.682;9.032;2023-02-15T08:40:00;20.55;;;14.23;;
13469;SDS011;6807;48.682;9.032;2023-02-15T08:42:29;21.15;;;14.10;;
13469;SDS011;6807;48.682;9.032;2023-02-15T08:44:58;17.08;;;13.27;;
13469;SDS011;6807;48.682;9.032;2023-02-15T08:47:29;20.52;;;14.43;;
13469;SDS011;6807;48.682;9.032;2023-02-15T08:49:56;21.00;;;13.02;;
13469;SDS011;6807;48.682;9.032;2023-02-15T08:52:23;24.55;;;13.68;;
13469;SDS011;6807;48.682;9.032;2023-02-15T08:54:53;22.17;;;13.38;;
13469;SDS011;6807;48.682;9.032;2023-02-15T08:57:20;18.52;;;11.60;;
13469;SDS011;6807;48.682;9.032;2023-02-15T08:59:49;21.90;;;11.18;;
13469;SDS011;6807;48.682;9.032;2023-02-15T09:02:16;19.55;;;11.88;;
13469;SDS011;6807;48.682;9.032;2023-02-15T09:04:44;14.30;;;11.10;;
13469;SDS011;6807;48.682;9.032;2023-02-15T09:07:10;16.55;;;11.23;;
13469;SDS011;6807;48.682;9.032;2023-02-15T09:09:37;12.65;;;10.00;;
13469;SDS011;6807;48.682;9.032;2023-02-15T09:12:04;17.67;;;9.35;;
13469;SDS011;6807;48.682;9.032;2023-02-15T09:14:32;14.30;;;9.93;;
13469;SDS011;6807;48.682;9.032;2023-02-15T09:17:01;14.85;;;9.57;;
13469;SDS011;6807;48.682;9.032;2023-02-15T09:19:31;14.93;;;9.43;;
13469;SDS011;6807;48.682;9.032;2023-02-15T09:22:00;12.60;;;8.60;;
13469;SDS011;6807;48.682;9.032;2023-02-15T09:24:31;13.55;;;8.85;;
13469;SDS011;6807;48.682;9.032;2023-02-15T09:26:58;12.35;;;8.70;;
13469;SDS011;6807;48.682;9.032;2023-02-15T09:29:25;15.15;;;7.30;;
13469;SDS011;6807;48.682;9.032;2023-02-15T09:31:53;9.18;;;7.35;;
13469;SDS011;6807;48.682;9.032;2023-02-15T09:34:22;11.05;;;7.50;;
13469;SDS011;6807;48.682;9.032;2023-02-15T09:36:49;10.38;;;7.13;;
13469;SDS011;6807;48.682;9.032;2023-02-15T09:39:17;10.48;;;7.22;;
13469;SDS011;6807;48.682;9.032;2023-02-15T09:42:04;12.20;;;7.55;;
13469;SDS011;6807;48.682;9.032;2023-02-15T09:44:41;8.68;;;7.18;;
13469;SDS011;6807;48.682;9.032;2023-02-15T09:47:20;8.10;;;6.95;;
13469;SDS011;6807;48.682;9.032;2023-02-15T09:49:55;9.02;;;7.35;;
13469;SDS011;6807;48.682;9.032;2023-02-15T09:52:36;8.70;;;6.88;;
13469;SDS011;6807;48.682;9.032;2023-02-15T09:55:22;10.95;;;6.57;;
13469;SDS011;6807;48.682;9.032;2023-02-15T09:57:52;9.98;;;7.70;;
13469;SDS011;6807;48.682;9.032;2023-02-15T10:00:22;11.38;;;7.35;;
13469;SDS011;6807;48.682;9.032;2023-02-15T10:02:54;9.27;;;6.50;;
13469;SDS011;6807;48.682;9.032;2023-02-15T10:05:28;8.35;;;5.93;;
13469;SDS011;6807;48.682;9.032;2023-02-15T10:08:10;7.35;;;6.30;;
13469;SDS011;6807;48.682;9.032;2023-02-15T10:10:42;8.75;;;6.72;;
13469;SDS011;6807;48.682;9.032;2023-02-15T10:13:17;8.23;;;6.10;;
13469;SDS011;6807;48.682;9.032;2023-02-15T10:15:58;9.52;;;7.45;;
13469;SDS011;6807;48.682;9.032;2023-02-15T10:18:43;8.38;;;7.03;;
13469;SDS011;6807;48.682;9.032;2023-02-15T10:21:30;8.43;;;7.07;;
13469;SDS011;6807;48.682;9.032;2023-02-15T10:24:13;9.45;;;7.43;;
13469;SDS011;6807;48.682;9.032;2023-02-15T10:26:51;8.85;;;7.47;;
13469;SDS011;6807;48.682;9.032;2023-02-15T10:29:29;10.98;;;7.47;;
13469;SDS011;6807;48.682;9.032;2023-02-15T10:32:04;9.68;;;7.57;;
13469;SDS011;6807;48.682;9.032;2023-02-15T10:34:43;9.45;;;7.18;;
13469;SDS011;6807;48.682;9.032;2023-02-15T10:37:24;11.40;;;7.25;;
13469;SDS011;6807;48.682;9.032;2023-02-15T10:39:57;11.00;;;7.10;;
13469;SDS011;6807;48.682;9.032;2023-02-15T10:42:30;9.02;;;7.35;;
13469;SDS011;6807;48.682;9.032;2023-02-15T10:45:04;9.30;;;7.70;;
13469;SDS011;6807;48.682;9.032;2023-02-15T10:47:38;10.43;;;7.65;;
13469;SDS011;6807;48.682;9.032;2023-02-15T10:50:21;11.98;;;8.13;;
13469;SDS011;6807;48.682;9.032;2023-02-15T10:53:03;9.15;;;8.15;;
13469;SDS011;6807;48.682;9.032;2023-02-15T10:55:45;11.20;;;7.72;;
13469;SDS011;6807;48.682;9.032;2023-02-15T10:58:20;9.02;;;7.43;;
13469;SDS011;6807;48.682;9.032;2023-02-15T11:01:00;8.00;;;6.88;;
13469;SDS011;6807;48.682;9.032;2023-02-15T11:03:36;9.25;;;7.05;;
13469;SDS011;6807;48.682;9.032;2023-02-15T11:06:07;8.30;;;6.60;;
13469;SDS011;6807;48.682;9.032;2023-02-15T11:08:40;8.35;;;6.85;;
13469;SDS011;6807;48.682;9.032;2023-02-15T11:11:14;8.60;;;6.93;;
13469;SDS011;6807;48.682;9.032;2023-02-15T11:13:50;8.57;;;6.85;;
13469;SDS011;6807;48.682;9.032;2023-02-15T11:16:21;9.13;;;7.15;;
13469;SDS011;6807;48.682;9.032;2023-02-15T11:18:55;7.88;;;6.75;;
13469;SDS011;6807;48.682;9.032;2023-02-15T11:21:26;9.85;;;7.07;;
13469;SDS011;6807;48.682;9.032;2023-02-15T11:23:58;8.70;;;6.78;;
13469;SDS011;6807;48.682;9.032;2023-02-15T11:26:28;8.52;;;7.05;;
13469;SDS011;6807;48.682;9.032;2023-02-15T11:29:00;7.80;;;6.43;;
13469;SDS011;6807;48.682;9.032;2023-02-15T11:31:35;7.50;;;6.25;;
13469;SDS011;6807;48.682;9.032;2023-02-15T11:34:12;7.78;;;6.38;;
13469;SDS011;6807;48.682;9.032;2023-02-15T11:36:44;7.45;;;5.63;;
13469;SDS011;6807;48.682;9.032;2023-02-15T11:39:15;7.57;;;6.75;;
13469;SDS011;6807;48.682;9.032;2023-02-15T11:41:45;7.65;;;6.25;;
13469;SDS011;6807;48.682;9.032;2023-02-15T11:44:17;8.45;;;5.78;;
13469;SDS011;6807;48.682;9.032;2023-02-15T11:46:49;8.30;;;5.88;;
13469;SDS011;6807;48.682;9.032;2023-02-15T11:49:20;9.23;;;6.35;;
13469;SDS011;6807;48.682;9.032;2023-02-15T11:51:50;6.40;;;5.72;;
13469;SDS011;6807;48.682;9.032;2023-02-15T11:54:19;8.00;;;6.30;;
13469;SDS011;6807;48.682;9.032;2023-02-15T11:56:52;6.38;;;5.78;;
13469;SDS011;6807;48.682;9.032;2023-02-15T11:59:21;7.20;;;5.47;;
13469;SDS011;6807;48.682;9.032;2023-02-15T12:01:55;8.73;;;6.15;;
13469;SDS011;6807;48.682;9.032;2023-02-15T12:04:25;9.05;;;5.93;;
13469;SDS011;6807;48.682;9.032;2023-02-15T12:06:57;9.43;;;6.30;;
13469;SDS011;6807;48.682;9.032;2023-02-15T12:09:31;8.95;;;7.15;;
13469;SDS011;6807;48.682;9.032;2023-02-15T12:12:21;7.80;;;6.97;;
13469;SDS011;6807;48.682;9.032;2023-02-15T12:14:53;9.05;;;7.00;;
13469;SDS011;6807;48.682;9.032;2023-02-15T12:17:21;7.30;;;6.15;;
13469;SDS011;6807;48.682;9.032;2023-02-15T12:19:52;10.48;;;5.63;;
13469;SDS011;6807;48.682;9.032;2023-02-15T12:22:22;8.02;;;5.47;;
13469;SDS011;6807;48.682;9.032;2023-02-15T12:24:52;9.88;;;6.03;;
13469;SDS011;6807;48.682;9.032;2023-02-15T12:27:23;7.85;;;4.85;;
13469;SDS011;6807;48.682;9.032;2023-02-15T12:29:56;8.45;;;5.53;;
13469;SDS011;6807;48.682;9.032;2023-02-15T12:32:27;7.95;;;5.10;;
13469;SDS011;6807;48.682;9.032;2023-02-15T12:34:59;6.95;;;4.65;;
13469;SDS011;6807;48.682;9.032;2023-02-15T12:37:34;7.03;;;4.25;;
13469;SDS011;6807;48.682;9.032;2023-02-15T12:40:18;6.80;;;4.57;;
13469;SDS011;6807;48.682;9.032;2023-02-15T12:42:46;8.27;;;4.65;;
13469;SDS011;6807;48.682;9.032;2023-02-15T12:45:23;8.18;;;4.57;;
13469;SDS011;6807;48.682;9.032;2023-02-15T12:48:08;7.03;;;5.22;;
13469;SDS011;6807;48.682;9.032;2023-02-15T12:50:42;7.55;;;5.00;;
13469;SDS011;6807;48.682;9.032;2023-02-15T12:53:17;8.52;;;5.25;;
13469;SDS011;6807;48.682;9.032;2023-02-15T12:55:54;9.25;;;5.95;;
13469;SDS011;6807;48.682;9.032;2023-02-15T12:58:23;9.73;;;5.53;;
13469;SDS011;6807;48.682;9.032;2023-02-15T13:01:01;6.43;;;5.00;;
13469;SDS011;6807;48.682;9.032;2023-02-15T13:03:36;11.88;;;7.57;;
13469;SDS011;6807;48.682;9.032;2023-02-15T13:06:06;10.65;;;8.30;;
13469;SDS011;6807;48.682;9.032;2023-02-15T13:08:34;12.38;;;9.18;;
13469;SDS011;6807;48.682;9.032;2023-02-15T13:11:07;11.68;;;8.45;;
13469;SDS011;6807;48.682;9.032;2023-02-15T13:13:36;12.75;;;8.80;;
13469;SDS011;6807;48.682;9.032;2023-02-15T13:16:16;10.30;;;8.07;;
13469;SDS011;6807;48.682;9.032;2023-02-15T13:18:50;13.73;;;8.40;;
13469;SDS011;6807;48.682;9.032;2023-02-15T13:21:19;14.90;;;8.90;;
13469;SDS011;6807;48.682;9.032;2023-02-15T13:23:50;11.50;;;8.13;;
13469;SDS011;6807;48.682;9.032;2023-02-15T13:26:21;14.13;;;7.78;;
13469;SDS011;6807;48.682;9.032;2023-02-15T13:28:54;12.40;;;8.05;;
13469;SDS011;6807;48.682;9.032;2023-02-15T13:31:26;15.02;;;7.97;;
13469;SDS011;6807;48.682;9.032;2023-02-15T13:33:58;12.93;;;7.63;;
13469;SDS011;6807;48.682;9.032;2023-02-15T13:36:37;9.43;;;6.72;;
13469;SDS011;6807;48.682;9.032;2023-02-15T13:39:20;13.85;;;7.72;;
13469;SDS011;6807;48.682;9.032;2023-02-15T13:41:58;9.85;;;7.05;;
13469;SDS011;6807;48.682;9.032;2023-02-15T13:44:49;10.57;;;6.72;;
13469;SDS011;6807;48.682;9.032;2023-02-15T13:47:27;9.80;;;7.05;;
13469;SDS011;6807;48.682;9.032;2023-02-15T13:50:10;9.52;;;6.40;;
13469;SDS011;6807;48.682;9.032;2023-02-15T13:52:55;8.32;;;6.28;;
13469;SDS011;6807;48.682;9.032;2023-02-15T13:55:34;12.70;;;7.45;;
13469;SDS011;6807;48.682;9.032;2023-02-15T13:58:17;12.00;;;7.57;;
13469;SDS011;6807;48.682;9.032;2023-02-15T14:01:08;9.90;;;6.10;;
13469;SDS011;6807;48.682;9.032;2023-02-15T14:03:43;8.32;;;6.68;;
13469;SDS011;6807;48.682;9.032;2023-02-15T14:06:36;8.15;;;6.00;;
13469;SDS011;6807;48.682;9.032;2023-02-15T14:09:26;8.38;;;5.97;;
13469;SDS011;6807;48.682;9.032;2023-02-15T14:12:17;7.85;;;6.25;;
13469;SDS011;6807;48.682;9.032;2023-02-15T14:15:13;9.32;;;6.25;;
13469;SDS011;6807;48.682;9.032;2023-02-15T14:18:02;10.30;;;6.97;;
13469;SDS011;6807;48.682;9.032;2023-02-15T14:20:41;8.90;;;6.53;;
13469;SDS011;6807;48.682;9.032;2023-02-15T14:23:18;11.10;;;7.50;;
13469;SDS011;6807;48.682;9.032;2023-02-15T14:25:55;11.35;;;8.07;;
13469;SDS011;6807;48.682;9.032;2023-02-15T14:28:28;14.20;;;8.30;;
13469;SDS011;6807;48.682;9.032;2023-02-15T14:31:01;11.57;;;6.78;;
13469;SDS011;6807;48.682;9.032;2023-02-15T14:33:32;10.48;;;7.20;;
13469;SDS011;6807;48.682;9.032;2023-02-15T14:36:05;9.90;;;7.72;;
13469;SDS011;6807;48.682;9.032;2023-02-15T14:38:39;11.07;;;7.50;;
13469;SDS011;6807;48.682;9.032;2023-02-15T14:41:10;10.93;;;7.75;;
13469;SDS011;6807;48.682;9.032;2023-02-15T14:43:46;11.65;;;7.53;;
13469;SDS011;6807;48.682;9.032;2023-02-15T14:46:20;12.02;;;7.20;;
13469;SDS011;6807;48.682;9.032;2023-02-15T14:48:50;13.45;;;7.07;;
13469;SDS011;6807;48.682;9.032;2023-02-15T14:57:22;9.48;;;7.57;;
13469;SDS011;6807;48.682;9.032;2023-02-15T14:59:53;12.90;;;8.27;;
13469;SDS011;6807;48.682;9.032;2023-02-15T15:02:24;12.48;;;8.57;;
13469;SDS011;6807;48.682;9.032;2023-02-15T15:05:00;17.23;;;9.38;;
13469;SDS011;6807;48.682;9.032;2023-02-15T15:07:40;13.15;;;9.63;;
13469;SDS011;6807;48.682;9.032;2023-02-15T15:13:34;12.27;;;9.15;;
13469;SDS011;6807;48.682;9.032;2023-02-15T15:16:27;15.25;;;10.25;;
13469;SDS011;6807;48.682;9.032;2023-02-15T15:19:00;14.65;;;8.98;;
13469;SDS011;6807;48.682;9.032;2023-02-15T15:36:58;14.57;;;8.43;;
13469;SDS011;6807;48.682;9.032;2023-02-15T15:42:45;16.20;;;7.43;;
13469;SDS011;6807;48.682;9.032;2023-02-15T15:48:35;10.25;;;7.32;;
13469;SDS011;6807;48.682;9.032;2023-02-15T15:51:05;11.57;;;7.82;;
13469;SDS011;6807;48.682;9.032;2023-02-15T15:53:41;9.65;;;6.80;;
13469;SDS011;6807;48.682;9.032;2023-02-15T15:56:14;10.60;;;6.07;;
13469;SDS011;6807;48.682;9.032;2023-02-15T15:58:46;12.77;;;7.50;;
13469;SDS011;6807;48.682;9.032;2023-02-15T16:01:21;11.52;;;6.80;;
13469;SDS011;6807;48.682;9.032;2023-02-15T16:03:53;12.35;;;6.38;;
13469;SDS011;6807;48.682;9.032;2023-02-15T16:06:28;10.02;;;6.60;;
13469;SDS011;6807;48.682;9.032;2023-02-15T16:09:10;9.85;;;6.82;;
13469;SDS011;6807;48.682;9.032;2023-02-15T16:11:38;14.85;;;6.57;;
13469;SDS011;6807;48.682;9.032;2023-02-15T16:14:12;10.65;;;7.38;;
13469;SDS011;6807;48.682;9.032;2023-02-15T16:16:46;11.13;;;7.22;;
13469;SDS011;6807;48.682;9.032;2023-02-15T16:19:23;14.82;;;7.57;;
13469;SDS011;6807;48.682;9.032;2023-02-15T16:22:00;9.77;;;6.80;;
13469;SDS011;6807;48.682;9.032;2023-02-15T16:24:39;9.68;;;6.95;;
13469;SDS011;6807;48.682;9.032;2023-02-15T16:27:41;13.35;;;6.85;;
13469;SDS011;6807;48.682;9.032;2023-02-15T16:30:23;12.75;;;7.20;;
13469;SDS011;6807;48.682;9.032;2023-02-15T16:32:55;9.40;;;6.55;;
13469;SDS011;6807;48.682;9.032;2023-02-15T16:35:31;13.65;;;6.85;;
13469;SDS011;6807;48.682;9.032;2023-02-15T16:37:58;13.38;;;7.82;;
13469;SDS011;6807;48.682;9.032;2023-02-15T16:40:31;15.35;;;7.15;;
13469;SDS011;6807;48.682;9.032;2023-02-15T16:43:10;11.73;;;6.93;;
13469;SDS011;6807;48.682;9.032;2023-02-15T16:45:43;12.43;;;6.60;;
13469;SDS011;6807;48.682;9.032;2023-02-15T16:48:12;18.13;;;7.57;;
13469;SDS011;6807;48.682;9.032;2023-02-15T16:50:46;21.90;;;7.60;;
13469;SDS011;6807;48.682;9.032;2023-02-15T16:53:17;11.45;;;7.55;;
13469;SDS011;6807;48.682;9.032;2023-02-15T16:55:49;9.43;;;6.25;;
13469;SDS011;6807;48.682;9.032;2023-02-15T16:58:20;10.07;;;6.90;;
13469;SDS011;6807;48.682;9.032;2023-02-15T17:00:49;14.35;;;7.50;;
13469;SDS011;6807;48.682;9.032;2023-02-15T17:03:20;11.68;;;7.47;;
13469;SDS011;6807;48.682;9.032;2023-02-15T17:05:49;17.08;;;7.72;;
13469;SDS011;6807;48.682;9.032;2023-02-15T17:08:17;16.10;;;7.55;;
13469;SDS011;6807;48.682;9.032;2023-02-15T17:10:46;13.05;;;8.50;;
13469;SDS011;6807;48.682;9.032;2023-02-15T17:13:15;15.90;;;8.18;;
13469;SDS011;6807;48.682;9.032;2023-02-15T17:15:43;13.18;;;7.47;;
13469;SDS011;6807;48.682;9.032;2023-02-15T17:18:12;14.80;;;9.63;;
13469;SDS011;6807;48.682;9.032;2023-02-15T17:20:43;15.70;;;9.07;;
13469;SDS011;6807;48.682;9.032;2023-02-15T17:23:18;15.98;;;9.15;;
13469;SDS011;6807;48.682;9.032;2023-02-15T17:25:49;16.20;;;8.52;;
13469;SDS011;6807;48.682;9.032;2023-02-15T17:28:20;14.52;;;9.05;;
13469;SDS011;6807;48.682;9.032;2023-02-15T17:30:48;16.20;;;9.30;;
13469;SDS011;6807;48.682;9.032;2023-02-15T17:33:20;14.25;;;8.65;;